x

Gulf Of Maine - 78 Nm East Of Portsmouth, Nh (44005) Wave Buoy

12:50 - Fri 29th Apr 2016 All times are EDT. -4 hours from GMT.

  • Sig Wave height 2.6ft
  • Peak Period 7s
  • Average Period 5s
  • Wind
    2mph, 4mph gusts
  • Sea Temp 44°f
  • Luft Temp 43°f
  • Sea Pressure 1020.8mb
  • Gulf Of Maine - 78 Nm East Of Portsmouth, Nh
  • Gulf Of Maine - 78 Nm East Of Portsmouth, Nh

More Historic Weather Station data

Upgrade to MSW Pro to gain access to the past 30 days of data for over 8000 Wavebouys and Weather Stations around the globe.

Join Pro

Comparision Forecast

View Surf forecast
   
Fr 04/29 12:50 2.5ft 7s 5s 2 4 mph 1020.8mb 44f 43f
Do 04/28 11:50 3ft 8s 5s 4 7 mph 1020.6mb 44f 43f
10:50 2.5ft 7s 5s 9
mph
1020.6mb 44f 43f
9:50 2.5ft 8s 5s 11
mph
1020.3mb 44f 43f
8:50 2.5ft 8s 5s 13
mph
1019.8mb 44f 43f
7:50 2.5ft 8s 5s 13 16 mph 1018.8mb 44f 42f
6:50 2.5ft 9s 5s 13 16 mph 1018.2mb 44f 42f
5:50 2.5ft 10s 5s 13 18 mph 1017.4mb 45f 42f
4:50 2ft 8s 5s 13 16 mph 1016.9mb 45f 41f
3:50 2.5ft 10s 6s 11 13 mph 1017.3mb 45f 41f
2:50 2.5ft 10s 5s 9 11 mph 1017.7mb 44f 40f
1:50 3ft 9s 5s 9 11 mph 1017.8mb 44f 40f
12:50 3ft 8s 5s 9 11 mph 1018mb 44f 40f
11:50 3.5ft 4s 5s 9 13 mph 1018mb 43f 39f
10:50 3.5ft 9s 5s 11 13 mph 1017.9mb 43f 39f
9:50 3.5ft 9s 5s 13 18 mph 1017.5mb 43f 39f
8:50 3.5ft 9s 5s 18 20 mph 1017mb 43f 39f
7:50 3.5ft 8s 5s 11 16 mph 1016.4mb 43f 39f
6:50 4ft 9s 5s 11 13 mph 1015.7mb 43f 39f
5:50 4.5ft 10s 5s 16 20 mph 1014.6mb 43f 40f
4:50 4ft 10s 5s 16 18 mph 1013.2mb 43f 41f
3:50 4.5ft 10s 5s 16 20 mph 1012.4mb 43f 42f
2:50 5ft 5s 5s 18 25 mph 1011.7mb 43f 42f
1:50 4.5ft 10s 4s 22 27 mph 1011.3mb 44f 43f
12:50 4ft 10s 4s 22 25 mph 1010.9mb 44f 44f
Mi 04/27 11:50 3.5ft 11s 6s 16 22 mph 1010.6mb 44f 44f
10:50 4ft 11s 6s 9 11 mph 1009.5mb 44f 45f
9:50 4.5ft 8s 6s 13 16 mph 1009.5mb 44f 44f
8:50 4ft 8s 6s 11 13 mph 1009.4mb 44f 44f
7:50 4.5ft 9s 5s 11 13 mph 1009.2mb 44f 44f
6:50 4.5ft 9s 5s 16 18 mph 1009.3mb 44f 44f
5:50 3.5ft 8s 5s 16 18 mph 1009.3mb 44f 44f
4:50 4ft 9s 5s 18 20 mph 1009.5mb 44f 44f
3:50 3.5ft 9s 5s 16 20 mph 1009.7mb 44f 44f
2:50 3ft 10s 6s 18 20 mph 1010.4mb 44f 44f
1:50 3.5ft 10s 7s 11 13 mph 1010.8mb 45f 43f
12:50 3ft 10s 6s 7 9 mph 1011.1mb 44f 42f
11:50 3.5ft 11s 7s 4 7 mph 1011.7mb 44f 42f
10:50 3.5ft 10s 6s 7 9 mph 1012mb 43f 42f
9:50 4ft 8s 6s 11 13 mph 1012.2mb 43f 42f
8:50 4.5ft 8s 6s 11 13 mph 1011.7mb 43f 42f
7:50 4ft 8s 6s 9
mph
1011.3mb 43f 41f
6:50 3.5ft 10s 5s 9 11 mph 1011.5mb 43f 41f
5:50 3.5ft 10s 5s 13 16 mph 1010.3mb 43f 41f
4:50 3ft 10s 5s 16 18 mph 1010mb 43f 41f
3:50 3ft 11s 5s 13 16 mph 1009.5mb 43f 40f
2:50 2.5ft 11s 5s 13 16 mph 1009.2mb 43f 40f
1:50 2.5ft 11s 4s 13 16 mph 1009.4mb 43f 40f
12:50 2.5ft 11s 4s 11 16 mph 1010.2mb 43f 39f
Di 04/26 11:50 2.5ft 12s 5s 13 18 mph 1009.9mb 43f 38f
10:50 2.5ft 11s 5s 11 16 mph 1009.7mb 43f 38f
9:50 2.5ft 12s 5s 9 11 mph 1009.6mb 43f 37f
8:50 3ft 11s 5s 9 11 mph 1009.5mb 43f 38f
7:50 3.5ft 5s 5s 9 13 mph 1008.9mb 43f 37f
6:50 3ft 11s 4s 16 20 mph 1008.6mb 43f 38f
5:50 3.5ft 4s 4s 16 20 mph 1008.3mb 43f 37f
4:50 3.5ft 4s 4s 18 20 mph 1007.2mb 43f 36f
3:50 2.5ft 10s 4s 18 22 mph 1007.3mb 43f 35f
2:50 2.5ft 11s 4s 16 18 mph 1007.9mb 43f 34f
1:50 3ft 5s 4s 13 16 mph 1009mb 43f 35f
12:50 3.5ft 5s 4s 16 20 mph 1008.4mb 43f 37f
11:50 3.5ft 5s 4s 18 22 mph 1009mb 43f 38f
10:50 2.5ft 5s 4s 18 22 mph 1009.7mb 43f 40f
9:50 2.5ft 5s 4s 16 18 mph 1010.3mb 43f 39f
8:50 3ft 4s 4s 16 18 mph 1011.3mb 43f 39f
7:50 3ft 5s 4s 16 20 mph 1012.1mb 43f 40f
6:50 3.5ft 5s 4s 13 20 mph 1012.8mb 43f 41f
5:50 3.5ft 4s 4s 16 20 mph 1012.4mb 44f 42f
4:50 3.5ft 10s 4s 18 20 mph 1012.7mb 44f 42f
3:50 3.5ft 4s 4s 18 20 mph 1013.2mb 44f 43f
2:50 3ft 11s 4s 18 20 mph 1013mb 44f 44f
1:50 2.5ft 3s 4s 18 20 mph 1013.4mb 44f 44f
12:50 2ft 11s 4s 18 20 mph 1013.1mb 44f 46f
Mo 04/25 11:50 2ft 11s 4s 11 13 mph 1013.1mb 44f 45f
10:50 2.5ft 11s 4s 7 9 mph 1013mb 44f 45f
9:50 2.5ft 12s 4s 9 13 mph 1012.7mb 44f 46f
8:50 2.5ft 11s 5s 9
mph
1012.3mb 44f 46f
7:50 2.5ft 11s 5s 9 11 mph 1012mb 45f 45f
6:50 2.5ft 11s 5s 11 13 mph 1012mb 45f 45f
5:50 2.5ft 10s 4s 13 16 mph 1012.3mb 45f 46f
4:50 2.5ft 10s 4s 11 16 mph 1012.6mb 45f 45f
3:50 2ft 10s 4s 16 18 mph 1012.9mb 45f 45f
2:50 1.6ft 11s 4s 13 16 mph 1013.6mb 45f 45f
1:50 1.6ft 11s 5s 13 16 mph 1014.2mb 45f 45f
12:50 1.6ft 11s 5s 13 16 mph 1014.7mb 45f 44f
11:50 1.6ft 11s 5s 9 11 mph 1015.7mb 44f 45f
10:50 1.6ft 12s  -  7
mph
1016.6mb 44f 44f
9:50 1.6ft 12s 5s 9 11 mph 1016.9mb 44f 44f
8:50 1.6ft 11s 5s 9 11 mph 1017.2mb 44f 44f
7:50 1.6ft 12s 4s 9
mph
1017.3mb 43f 44f
6:50 1.6ft 11s 5s 11 13 mph 1016.9mb 43f 43f
5:50 1.6ft 11s 5s 9
mph
1016.7mb 43f 43f